createdAt,value
2018-09-29T00:01:04.042Z,5.47
2018-09-29T00:03:32.222Z,14.27
2018-09-29T00:06:00.275Z,5.50
2018-09-29T00:08:28.356Z,4.53
2018-09-29T00:10:56.440Z,8.13
2018-09-29T00:13:24.477Z,8.47
2018-09-29T00:15:52.543Z,7.80
2018-09-29T00:18:20.631Z,7.30
2018-09-29T00:20:48.728Z,6.67
2018-09-29T00:23:17.305Z,8.20
2018-09-29T00:25:45.346Z,7.47
2018-09-29T00:28:13.415Z,8.67
2018-09-29T00:30:41.488Z,5.90
2018-09-29T00:33:09.548Z,6.43
2018-09-29T00:35:37.653Z,6.97
2018-09-29T00:38:05.708Z,8.33
2018-09-29T00:40:33.779Z,8.93
2018-09-29T00:43:01.860Z,9.47
2018-09-29T00:45:30.012Z,5.60
2018-09-29T00:47:58.060Z,8.03
2018-09-29T00:50:26.178Z,8.53
2018-09-29T00:52:54.302Z,9.63
2018-09-29T00:55:22.385Z,8.93
2018-09-29T00:57:50.484Z,7.40
2018-09-29T01:00:18.665Z,7.43
2018-09-29T01:02:46.721Z,8.73
2018-09-29T01:05:14.950Z,5.93
2018-09-29T01:07:43.061Z,6.97
2018-09-29T01:10:11.104Z,7.67
2018-09-29T01:12:39.150Z,7.83
2018-09-29T01:15:07.251Z,9.97
2018-09-29T01:17:35.316Z,8.37
2018-09-29T01:20:03.417Z,8.23
2018-09-29T01:22:31.500Z,8.17
2018-09-29T01:24:59.591Z,8.87
2018-09-29T01:27:27.699Z,11.93
2018-09-29T01:29:55.759Z,9.40
2018-09-29T01:32:23.806Z,12.17
2018-09-29T01:34:51.875Z,9.20
2018-09-29T01:37:19.943Z,10.20
2018-09-29T01:39:48.004Z,7.27
2018-09-29T01:42:16.079Z,11.20
2018-09-29T01:44:44.249Z,10.13
2018-09-29T01:47:12.363Z,8.40
2018-09-29T01:49:40.411Z,11.30
2018-09-29T01:52:08.488Z,8.07
2018-09-29T01:54:36.542Z,8.47
2018-09-29T01:57:04.625Z,9.23
2018-09-29T01:59:32.684Z,9.40
2018-09-29T02:02:00.773Z,11.40
2018-09-29T02:04:28.830Z,9.23
2018-09-29T02:06:56.968Z,8.00
2018-09-29T02:09:25.010Z,8.57
2018-09-29T02:11:53.058Z,8.50
2018-09-29T02:14:21.102Z,9.30
2018-09-29T02:16:49.184Z,10.67
2018-09-29T02:19:17.225Z,7.43
2018-09-29T02:21:45.296Z,6.70
2018-09-29T02:24:13.355Z,9.83
2018-09-29T02:26:41.412Z,7.57
2018-09-29T02:29:09.465Z,10.23
2018-09-29T02:31:37.539Z,10.97
2018-09-29T02:34:05.596Z,8.43
2018-09-29T02:36:33.678Z,8.07
2018-09-29T02:39:01.748Z,7.67
2018-09-29T02:41:29.844Z,8.60
2018-09-29T02:43:57.901Z,10.07
2018-09-29T02:46:26.033Z,8.40
2018-09-29T02:48:54.138Z,7.53
2018-09-29T02:51:22.224Z,9.20
2018-09-29T02:53:50.268Z,11.10
2018-09-29T02:56:18.338Z,6.70
2018-09-29T02:58:46.414Z,10.13
2018-09-29T03:01:14.508Z,5.97
2018-09-29T03:03:42.608Z,4.87
2018-09-29T03:06:10.651Z,8.53
2018-09-29T03:08:38.745Z,8.20
2018-09-29T03:11:06.848Z,6.37
2018-09-29T03:13:34.896Z,5.47
2018-09-29T03:16:02.959Z,8.60
2018-09-29T03:18:31.061Z,7.23
2018-09-29T03:20:59.134Z,7.83
2018-09-29T03:23:27.195Z,9.03
2018-09-29T03:25:55.265Z,8.03
2018-09-29T03:28:23.378Z,8.37
2018-09-29T03:30:51.456Z,6.93
2018-09-29T03:33:19.670Z,10.53
2018-09-29T03:35:47.759Z,9.90
2018-09-29T03:38:15.839Z,6.87
2018-09-29T03:40:43.927Z,10.03
2018-09-29T03:43:12.016Z,9.07
2018-09-29T03:45:40.109Z,10.13
2018-09-29T03:48:08.179Z,8.53
2018-09-29T03:50:36.250Z,10.10
2018-09-29T03:53:04.404Z,12.73
2018-09-29T03:55:32.499Z,8.57
2018-09-29T03:58:00.658Z,8.83
2018-09-29T04:00:28.727Z,14.33
2018-09-29T04:02:56.900Z,11.40
2018-09-29T04:05:24.988Z,9.67
2018-09-29T04:07:53.067Z,9.17
2018-09-29T04:10:21.487Z,7.67
2018-09-29T04:12:49.572Z,8.70
2018-09-29T04:15:17.639Z,7.70
2018-09-29T04:17:45.690Z,8.23
2018-09-29T04:20:13.752Z,9.50
2018-09-29T04:22:41.825Z,8.63
2018-09-29T04:25:09.861Z,8.47
2018-09-29T04:27:37.947Z,10.17
2018-09-29T04:30:06.196Z,11.53
2018-09-29T04:32:34.336Z,8.60
2018-09-29T04:35:02.408Z,9.53
2018-09-29T04:37:30.453Z,6.53
2018-09-29T04:39:58.491Z,10.87
2018-09-29T04:42:26.575Z,7.57
2018-09-29T04:44:54.676Z,11.10
2018-09-29T04:47:22.769Z,9.57
2018-09-29T04:49:50.812Z,9.03
2018-09-29T04:52:18.903Z,7.40
2018-09-29T04:54:46.948Z,5.93
2018-09-29T04:57:14.994Z,8.17
2018-09-29T04:59:43.112Z,8.20
2018-09-29T05:02:11.139Z,10.57
2018-09-29T05:04:39.244Z,7.70
2018-09-29T05:07:07.954Z,7.90
2018-09-29T05:09:36.020Z,9.93
2018-09-29T05:12:04.075Z,10.27
2018-09-29T05:14:32.136Z,9.40
2018-09-29T05:17:00.200Z,10.50
2018-09-29T05:19:28.295Z,10.33
2018-09-29T05:21:56.449Z,12.67
2018-09-29T05:24:24.520Z,7.77
2018-09-29T05:26:52.572Z,10.03
2018-09-29T05:29:20.649Z,9.77
2018-09-29T05:31:48.713Z,10.63
2018-09-29T05:34:16.809Z,9.93
2018-09-29T05:36:44.885Z,15.57
2018-09-29T05:39:12.953Z,11.77
2018-09-29T05:41:41.106Z,10.30
2018-09-29T05:44:09.584Z,6.47
2018-09-29T05:46:37.626Z,10.23
2018-09-29T05:49:05.692Z,9.83
2018-09-29T05:51:33.748Z,8.00
2018-09-29T05:54:01.857Z,12.00
2018-09-29T05:56:29.906Z,13.60
2018-09-29T05:58:57.975Z,6.23
2018-09-29T06:04:00.664Z,8.33
2018-09-29T06:06:30.630Z,13.20
2018-09-29T06:08:58.963Z,12.20
2018-09-29T06:11:27.087Z,11.73
2018-09-29T06:13:55.255Z,8.30
2018-09-29T06:16:23.529Z,8.63
2018-09-29T06:18:51.584Z,12.90
2018-09-29T06:21:19.637Z,9.43
2018-09-29T06:23:47.661Z,10.57
2018-09-29T06:26:15.816Z,13.60
2018-09-29T06:28:43.953Z,8.97
2018-09-29T06:31:12.039Z,9.90
2018-09-29T06:33:40.412Z,10.67
2018-09-29T06:36:15.485Z,10.43
2018-09-29T06:38:43.560Z,10.33
2018-09-29T06:41:11.638Z,6.03
2018-09-29T06:43:39.784Z,7.53
2018-09-29T06:46:07.889Z,6.60
2018-09-29T06:48:35.950Z,7.03
2018-09-29T06:51:04.160Z,11.47
2018-09-29T06:53:32.200Z,8.07
2018-09-29T06:56:00.292Z,6.73
2018-09-29T06:58:28.355Z,8.30
2018-09-29T07:00:56.449Z,10.90
2018-09-29T07:03:24.526Z,9.60
2018-09-29T07:05:52.632Z,9.03
2018-09-29T07:08:20.687Z,9.20
2018-09-29T07:10:48.768Z,6.53
2018-09-29T07:13:16.944Z,10.70
2018-09-29T07:15:45.033Z,10.97
2018-09-29T07:18:13.110Z,10.33
2018-09-29T07:20:41.215Z,10.73
2018-09-29T07:23:09.288Z,9.57
2018-09-29T07:25:37.368Z,8.97
2018-09-29T07:28:05.412Z,9.30
2018-09-29T07:30:33.497Z,8.30
2018-09-29T07:33:01.560Z,11.03
2018-09-29T07:35:29.643Z,9.97
2018-09-29T07:37:57.710Z,10.33
2018-09-29T07:40:25.810Z,11.00
2018-09-29T07:42:53.936Z,9.07
2018-09-29T07:45:22.016Z,8.10
2018-09-29T07:47:50.107Z,8.83
2018-09-29T07:50:18.194Z,8.93
2018-09-29T07:52:46.234Z,10.30
2018-09-29T07:55:14.331Z,9.57
2018-09-29T07:57:42.414Z,8.77
2018-09-29T08:00:10.478Z,9.83
2018-09-29T08:02:38.550Z,8.70
2018-09-29T08:05:06.845Z,11.13
2018-09-29T08:07:35.012Z,6.77
2018-09-29T08:10:03.149Z,11.70
2018-09-29T08:12:31.320Z,11.27
2018-09-29T08:14:59.333Z,10.30
2018-09-29T08:17:27.467Z,7.23
2018-09-29T08:19:55.541Z,6.33
2018-09-29T08:22:23.654Z,12.60
2018-09-29T08:24:51.738Z,9.67
2018-09-29T08:27:19.928Z,12.57
2018-09-29T08:29:48.028Z,6.23
2018-09-29T08:32:16.156Z,11.47
2018-09-29T08:34:44.180Z,11.73
2018-09-29T08:37:12.280Z,12.07
2018-09-29T08:39:40.331Z,10.10
2018-09-29T08:42:08.399Z,10.37
2018-09-29T08:44:36.502Z,8.40
2018-09-29T08:47:04.590Z,8.30
2018-09-29T08:49:32.667Z,10.37
2018-09-29T08:52:00.738Z,7.80
2018-09-29T08:54:28.841Z,10.50
2018-09-29T08:56:57.024Z,7.50
2018-09-29T08:59:25.119Z,10.60
2018-09-29T09:01:53.384Z,8.80
2018-09-29T09:04:21.477Z,8.17
2018-09-29T09:06:49.527Z,7.87
2018-09-29T09:09:17.605Z,7.33
2018-09-29T09:11:45.675Z,8.90
2018-09-29T09:14:13.736Z,7.07
2018-09-29T09:16:41.879Z,6.87
2018-09-29T09:19:09.956Z,9.30
2018-09-29T09:21:38.017Z,6.93
2018-09-29T09:24:06.246Z,10.20
2018-09-29T09:26:34.341Z,5.90
2018-09-29T09:29:02.541Z,9.20
2018-09-29T09:31:30.691Z,7.10
2018-09-29T09:33:58.776Z,7.03
2018-09-29T09:36:26.898Z,6.53
2018-09-29T09:38:55.012Z,6.80
2018-09-29T09:41:23.096Z,7.23
2018-09-29T09:43:51.168Z,6.70
2018-09-29T09:46:19.256Z,5.63
2018-09-29T09:48:47.352Z,6.30
2018-09-29T09:51:15.420Z,7.73
2018-09-29T09:53:44.340Z,4.73
2018-09-29T09:56:12.467Z,4.93
2018-09-29T09:58:40.544Z,4.30
2018-09-29T10:01:14.122Z,7.17
2018-09-29T10:03:42.191Z,4.20
2018-09-29T10:06:10.275Z,4.70
2018-09-29T10:08:41.255Z,5.27
2018-09-29T10:11:09.325Z,3.73
2018-09-29T10:13:37.430Z,3.60
2018-09-29T10:16:05.709Z,6.83
2018-09-29T10:18:33.820Z,4.13
2018-09-29T10:21:01.887Z,4.30
2018-09-29T10:23:29.975Z,5.63
2018-09-29T10:25:58.131Z,6.80
2018-09-29T10:28:26.231Z,7.70
2018-09-29T10:30:54.304Z,3.80
2018-09-29T10:33:22.381Z,4.67
2018-09-29T10:35:50.445Z,4.60
2018-09-29T10:38:18.558Z,3.93
2018-09-29T10:40:46.901Z,3.90
2018-09-29T10:43:15.325Z,6.83
2018-09-29T10:45:43.566Z,7.83
2018-09-29T10:48:11.690Z,5.23
2018-09-29T10:50:39.808Z,5.10
2018-09-29T10:53:07.913Z,3.90
2018-09-29T10:55:35.983Z,4.67
2018-09-29T10:58:04.139Z,9.20
2018-09-29T11:00:32.206Z,7.77
2018-09-29T11:03:00.284Z,4.10
2018-09-29T11:05:28.434Z,6.07
2018-09-29T11:07:56.534Z,7.30
2018-09-29T11:10:24.591Z,5.20
2018-09-29T11:12:52.705Z,4.23
2018-09-29T11:15:20.790Z,5.87
2018-09-29T11:17:48.948Z,6.30
2018-09-29T11:20:17.083Z,5.37
2018-09-29T11:22:45.159Z,4.77
2018-09-29T11:25:13.269Z,5.33
2018-09-29T11:27:41.460Z,4.83
2018-09-29T11:30:09.540Z,5.13
2018-09-29T11:32:37.747Z,7.70
2018-09-29T11:35:06.113Z,4.97
2018-09-29T11:37:34.254Z,2.93
2018-09-29T11:40:02.384Z,3.47
2018-09-29T11:42:30.447Z,6.03
2018-09-29T11:44:58.657Z,5.90
2018-09-29T11:47:26.730Z,8.57
2018-09-29T11:49:54.879Z,7.20
2018-09-29T11:52:22.936Z,5.87
2018-09-29T11:54:51.040Z,4.23
2018-09-29T11:57:19.328Z,8.97
2018-09-29T11:59:47.403Z,3.20
2018-09-29T12:02:15.562Z,6.60
2018-09-29T12:04:43.612Z,5.03
2018-09-29T12:07:11.785Z,4.87
2018-09-29T12:09:39.804Z,4.67
2018-09-29T12:12:07.932Z,5.03
2018-09-29T12:14:36.129Z,4.20
2018-09-29T12:17:04.195Z,4.23
2018-09-29T12:19:32.257Z,6.23
2018-09-29T12:22:00.415Z,6.53
2018-09-29T12:24:28.523Z,5.07
2018-09-29T12:26:56.623Z,4.10
2018-09-29T12:29:24.773Z,6.50
2018-09-29T12:31:52.833Z,4.33
2018-09-29T12:34:20.943Z,5.10
2018-09-29T12:36:49.254Z,5.20
2018-09-29T12:39:17.419Z,4.57
2018-09-29T12:41:45.476Z,4.00
2018-09-29T12:44:13.565Z,8.70
2018-09-29T12:46:41.639Z,2.87
2018-09-29T12:49:09.721Z,3.83
2018-09-29T12:51:37.885Z,5.20
2018-09-29T12:54:06.077Z,3.57
2018-09-29T12:56:34.154Z,2.17
2018-09-29T12:59:02.338Z,4.70
2018-09-29T13:01:30.428Z,6.23
2018-09-29T13:03:58.488Z,5.03
2018-09-29T13:06:26.596Z,5.83
2018-09-29T13:08:54.719Z,4.27
2018-09-29T13:11:22.934Z,3.80
2018-09-29T13:13:51.043Z,9.50
2018-09-29T13:16:19.137Z,4.40
2018-09-29T13:18:47.231Z,3.87
2018-09-29T13:21:15.326Z,6.30
2018-09-29T13:23:43.416Z,5.03
2018-09-29T13:26:11.504Z,4.67
2018-09-29T13:28:39.575Z,3.33
2018-09-29T13:31:07.832Z,3.60
2018-09-29T13:33:35.929Z,4.93
2018-09-29T13:36:04.001Z,3.90
2018-09-29T13:38:32.093Z,2.70
2018-09-29T13:41:00.264Z,6.67
2018-09-29T13:43:28.323Z,6.07
2018-09-29T13:45:56.453Z,2.27
2018-09-29T13:48:24.560Z,4.10
2018-09-29T13:50:52.700Z,3.00
2018-09-29T13:53:20.790Z,4.30
2018-09-29T13:55:48.877Z,3.27
2018-09-29T13:58:16.959Z,3.87
2018-09-29T14:00:45.090Z,3.67
2018-09-29T14:03:13.208Z,5.53
2018-09-29T14:05:41.330Z,6.13
2018-09-29T14:08:09.420Z,5.47
2018-09-29T14:10:37.529Z,6.17
2018-09-29T14:13:05.919Z,5.93
2018-09-29T14:15:34.037Z,2.57
2018-09-29T14:18:02.165Z,6.13
2018-09-29T14:20:30.252Z,4.63
2018-09-29T14:22:58.286Z,2.47
2018-09-29T14:25:26.399Z,6.13
2018-09-29T14:27:54.838Z,3.40
2018-09-29T14:30:22.994Z,4.57
2018-09-29T14:32:51.156Z,3.87
2018-09-29T14:35:19.277Z,4.37
2018-09-29T14:37:47.339Z,3.03
2018-09-29T14:40:15.452Z,5.23
2018-09-29T14:42:43.518Z,3.63
2018-09-29T14:45:11.693Z,4.17
2018-09-29T14:47:39.718Z,4.87
2018-09-29T14:50:08.005Z,5.10
2018-09-29T14:52:36.312Z,4.13
2018-09-29T14:55:04.684Z,3.03
2018-09-29T14:57:33.017Z,3.47
2018-09-29T15:00:01.130Z,3.23
2018-09-29T15:02:29.325Z,4.07
2018-09-29T15:04:57.793Z,5.50
2018-09-29T15:07:25.984Z,3.70
2018-09-29T15:09:54.304Z,4.90
2018-09-29T15:12:22.985Z,3.20
2018-09-29T15:14:51.084Z,3.70
2018-09-29T15:17:19.190Z,4.57
2018-09-29T15:19:47.297Z,4.70
2018-09-29T15:22:15.377Z,3.03
2018-09-29T15:24:43.540Z,2.80
2018-09-29T15:27:11.677Z,3.83
2018-09-29T15:29:39.776Z,3.70
2018-09-29T15:32:08.099Z,2.80
2018-09-29T15:34:36.171Z,3.70
2018-09-29T15:37:04.283Z,3.57
2018-09-29T15:39:32.360Z,4.57
2018-09-29T15:42:00.448Z,5.07
2018-09-29T15:44:28.514Z,4.13
2018-09-29T15:46:56.589Z,3.27
2018-09-29T15:49:24.646Z,4.20
2018-09-29T15:51:52.766Z,7.93
2018-09-29T15:54:20.839Z,5.70
2018-09-29T15:56:48.902Z,4.13
2018-09-29T15:59:17.204Z,4.13
2018-09-29T16:01:45.374Z,5.37
2018-09-29T16:04:13.719Z,2.17
2018-09-29T16:06:41.823Z,3.83
2018-09-29T16:09:10.681Z,4.23
2018-09-29T16:11:39.491Z,3.97
2018-09-29T16:14:07.584Z,7.03
2018-09-29T16:16:35.807Z,4.67
2018-09-29T16:19:03.927Z,5.03
2018-09-29T16:21:32.085Z,2.53
2018-09-29T16:24:00.156Z,4.60
2018-09-29T16:26:28.239Z,3.47
2018-09-29T16:28:56.485Z,4.57
2018-09-29T16:31:24.845Z,3.40
2018-09-29T16:33:53.237Z,5.90
2018-09-29T16:36:21.289Z,3.83
2018-09-29T16:38:49.338Z,4.03
2018-09-29T16:41:17.409Z,3.97
2018-09-29T16:43:45.554Z,3.23
2018-09-29T16:46:13.624Z,5.10
2018-09-29T16:48:41.788Z,3.53
2018-09-29T16:51:09.929Z,6.87
2018-09-29T16:53:38.028Z,4.43
2018-09-29T16:56:06.232Z,3.83
2018-09-29T16:58:34.345Z,3.67
2018-09-29T17:01:02.435Z,4.17
2018-09-29T17:03:30.621Z,6.50
2018-09-29T17:05:58.640Z,6.13
2018-09-29T17:08:26.725Z,7.83
2018-09-29T17:10:54.796Z,4.63
2018-09-29T17:13:22.905Z,4.00
2018-09-29T17:15:51.098Z,4.63
2018-09-29T17:18:19.286Z,5.33
2018-09-29T17:20:47.366Z,5.40
2018-09-29T17:23:15.425Z,4.00
2018-09-29T17:25:43.498Z,7.57
2018-09-29T17:28:11.586Z,6.53
2018-09-29T17:30:39.652Z,7.57
2018-09-29T17:33:07.817Z,6.73
2018-09-29T17:35:35.909Z,8.10
2018-09-29T17:38:04.028Z,6.13
2018-09-29T17:40:32.097Z,6.90
2018-09-29T17:43:00.213Z,6.53
2018-09-29T17:45:28.472Z,5.90
2018-09-29T17:47:56.564Z,6.40
2018-09-29T17:50:24.658Z,8.03
2018-09-29T17:52:53.204Z,37.87
2018-09-29T17:55:21.249Z,16.50
2018-09-29T17:57:49.367Z,24.97
2018-09-29T18:00:17.491Z,12.37
2018-09-29T18:02:45.645Z,14.53
2018-09-29T18:05:13.819Z,11.97
2018-09-29T18:07:41.944Z,12.07
2018-09-29T18:10:10.061Z,15.07
2018-09-29T18:12:38.389Z,11.93
2018-09-29T18:15:06.480Z,15.20
2018-09-29T18:17:34.630Z,16.27
2018-09-29T18:20:02.834Z,14.90
2018-09-29T18:22:31.022Z,16.30
2018-09-29T18:24:59.126Z,14.10
2018-09-29T18:27:27.256Z,17.57
2018-09-29T18:29:55.368Z,18.50
2018-09-29T18:32:23.458Z,17.30
2018-09-29T18:34:51.552Z,23.53
2018-09-29T18:37:19.708Z,22.93
2018-09-29T18:39:47.798Z,21.37
2018-09-29T18:42:15.880Z,16.13
2018-09-29T18:44:44.057Z,16.17
2018-09-29T18:47:12.241Z,14.00
2018-09-29T18:49:40.406Z,13.87
2018-09-29T18:52:08.801Z,13.23
2018-09-29T18:54:36.956Z,12.80
2018-09-29T18:57:05.107Z,12.73
2018-09-29T18:59:33.207Z,11.47
2018-09-29T19:02:01.343Z,17.60
2018-09-29T19:04:29.416Z,17.67
2018-09-29T19:06:57.505Z,14.90
2018-09-29T19:09:25.620Z,16.23
2018-09-29T19:11:53.781Z,23.33
2018-09-29T19:14:21.890Z,26.70
2018-09-29T19:16:49.997Z,21.00
2018-09-29T19:19:18.215Z,21.17
2018-09-29T19:21:46.340Z,19.00
2018-09-29T19:24:14.461Z,17.30
2018-09-29T19:26:42.519Z,27.47
2018-09-29T19:29:10.642Z,20.47
2018-09-29T19:31:38.689Z,25.40
2018-09-29T19:34:06.841Z,23.70
2018-09-29T19:36:34.920Z,19.33
2018-09-29T19:39:03.698Z,19.90
2018-09-29T19:41:31.774Z,22.07
2018-09-29T19:43:59.915Z,28.97
2018-09-29T19:46:28.102Z,23.80
2018-09-29T19:48:56.292Z,21.13
2018-09-29T19:51:24.459Z,21.90
2018-09-29T19:53:52.563Z,23.97
2018-09-29T19:56:20.696Z,22.57
2018-09-29T19:58:48.799Z,18.60
2018-09-29T20:01:16.904Z,19.73
2018-09-29T20:03:45.041Z,22.33
2018-09-29T20:06:13.175Z,23.67
2018-09-29T20:08:41.264Z,21.17
2018-09-29T20:11:09.375Z,22.13
2018-09-29T20:13:37.480Z,22.90
2018-09-29T20:16:05.761Z,23.33
2018-09-29T20:18:33.887Z,26.07
2018-09-29T20:21:02.034Z,21.50
2018-09-29T20:23:30.193Z,22.33
2018-09-29T20:25:58.300Z,21.27
2018-09-29T20:28:26.376Z,27.27
2018-09-29T20:30:54.481Z,24.17
2018-09-29T20:33:22.568Z,22.43
2018-09-29T20:35:50.712Z,26.00
2018-09-29T20:38:18.766Z,25.60
2018-09-29T20:40:46.882Z,21.50
2018-09-29T20:43:15.013Z,23.97
2018-09-29T20:45:43.100Z,24.73
2018-09-29T20:48:11.182Z,17.13
2018-09-29T20:50:39.295Z,21.97
2018-09-29T20:53:07.388Z,21.20
2018-09-29T20:55:35.470Z,20.73
2018-09-29T20:58:03.588Z,19.30
2018-09-29T21:00:31.697Z,20.07
2018-09-29T21:02:59.841Z,22.60
2018-09-29T21:05:27.964Z,21.37
2018-09-29T21:07:56.034Z,18.67
2018-09-29T21:10:24.131Z,21.20
2018-09-29T21:12:52.294Z,19.77
2018-09-29T21:15:20.316Z,20.40
2018-09-29T21:17:48.447Z,23.73
2018-09-29T21:20:16.528Z,22.27
2018-09-29T21:22:44.653Z,21.93
2018-09-29T21:25:12.739Z,25.10
2018-09-29T21:27:40.844Z,20.53
2018-09-29T21:30:08.935Z,21.27
2018-09-29T21:32:36.984Z,19.80
2018-09-29T21:35:05.068Z,20.00
2018-09-29T21:37:33.182Z,18.23
2018-09-29T21:40:01.374Z,21.03
2018-09-29T21:42:29.619Z,20.43
2018-09-29T21:44:57.628Z,19.97
2018-09-29T21:47:25.708Z,20.67
2018-09-29T21:49:53.797Z,16.73
2018-09-29T21:52:21.893Z,20.33
2018-09-29T21:54:49.945Z,17.47
2018-09-29T21:57:18.035Z,20.83
2018-09-29T21:59:46.060Z,19.80
2018-09-29T22:02:14.131Z,15.73
2018-09-29T22:04:42.278Z,17.97
2018-09-29T22:07:10.362Z,17.60
2018-09-29T22:09:38.673Z,15.43
2018-09-29T22:12:07.129Z,15.07
2018-09-29T22:14:35.309Z,13.37
2018-09-29T22:17:03.578Z,18.33
2018-09-29T22:19:31.715Z,17.30
2018-09-29T22:22:00.017Z,17.90
2018-09-29T22:24:28.341Z,14.40
2018-09-29T22:26:56.724Z,17.37
2018-09-29T22:31:59.630Z,17.47
2018-09-29T22:34:27.909Z,17.70
2018-09-29T22:36:56.184Z,15.13
2018-09-29T22:39:24.593Z,13.63
2018-09-29T22:41:52.976Z,20.50
2018-09-29T22:44:21.219Z,16.63
2018-09-29T22:46:49.487Z,16.23
2018-09-29T22:49:17.816Z,13.40
2018-09-29T22:51:45.998Z,18.07
2018-09-29T22:54:14.198Z,13.47
2018-09-29T22:56:42.513Z,14.30
2018-09-29T22:59:10.729Z,13.60
2018-09-29T23:01:38.869Z,12.27
2018-09-29T23:04:07.145Z,13.43
2018-09-29T23:06:35.309Z,12.83
2018-09-29T23:09:03.901Z,9.90
2018-09-29T23:11:32.216Z,13.70
2018-09-29T23:14:00.527Z,13.67
2018-09-29T23:16:28.640Z,10.87
2018-09-29T23:18:56.743Z,15.80
2018-09-29T23:21:24.869Z,11.40
2018-09-29T23:23:52.981Z,10.97
2018-09-29T23:26:21.084Z,16.53
2018-09-29T23:28:49.173Z,11.03
2018-09-29T23:31:17.208Z,11.67
2018-09-29T23:33:45.448Z,10.23
2018-09-29T23:36:13.659Z,11.67
2018-09-29T23:38:41.812Z,9.67
2018-09-29T23:41:09.903Z,8.33
2018-09-29T23:43:38.310Z,11.13
2018-09-29T23:46:06.487Z,9.80
2018-09-29T23:48:34.539Z,9.30
2018-09-29T23:51:02.684Z,9.17
2018-09-29T23:53:30.905Z,10.17
2018-09-29T23:55:59.092Z,10.97
2018-09-29T23:58:27.805Z,9.67
